Saint Louis, Missouri
Current Conditions -  °F | °C
As of 10:35 PM on Monday 22 Dec 2014 (Local Time) from KCPS Reporting Station
Overcast Overcast  
Wind Chill: 11°   Ceiling: 2300
Heat Index: 11°   Visibility: 10mi
Dew Point:   Wind: 6mph
Humidity: 92%   Direction: 190°S
Pressure: 29.54"   Gusts: NA
Location:  38.63°N, 90.24°W
Report Text: KCPS 230435Z AUTO 19005KT 10SM FEW016 BKN023 OVC070 11/09 A2954 RMK AO2 T01060094 TSNO
Loading
Personal Weather Stations






























Interactive Weather Map New forecast layout! Learn more

10-Day Weather Forecast

Advertisements
Track Severe Weather on mobile